CST,Max TemperatureF,Mean TemperatureF,Min TemperatureF,Max Dew PointF,MeanDew PointF,Min DewpointF,Max Humidity, Mean Humidity, Min Humidity, Max Sea Level PressureIn, Mean Sea Level PressureIn, Min Sea Level PressureIn, Max VisibilityMiles, Mean VisibilityMiles, Min VisibilityMiles, Max Wind SpeedMPH, Mean Wind SpeedMPH, Max Gust SpeedMPH,PrecipitationIn, CloudCover, Events, WindDirDegrees
2011-11-1,70,51,32,38,33,30,89,57,24,30.32,30.26,30.23,10,10,10,10,2,16,0.00,0,,196
2011-11-2,70,53,35,42,37,33,92,63,33,30.32,30.24,30.14,10,10,10,20,5,24,0.00,0,,187
2011-11-3,58,51,43,54,45,35,92,68,43,29.99,29.90,29.80,10,9,2,20,10,26,0.29,8,Rain,230
2011-11-4,56,46,36,48,42,34,93,80,66,30.24,30.14,29.98,10,5,0,12,3,15,T,5,Fog,313
2011-11-5,68,50,31,45,37,28,100,71,42,30.30,30.23,30.17,10,6,0,16,2,18,0.00,0,Fog,164
2011-11-6,66,53,40,41,38,31,83,60,37,30.37,30.29,30.20,10,10,10,18,6,23,0.00,0,,177
2011-11-7,72,57,41,53,47,38,93,73,53,30.34,30.27,30.20,10,10,10,13,2,17,0.00,0,,188
2011-11-8,74,59,44,52,49,42,93,70,46,30.19,30.10,29.97,10,10,9,21,8,26,0.00,1,,163
2011-11-9,67,56,44,57,47,33,84,68,52,30.19,30.00,29.90,10,9,2,25,13,32,0.05,6,Rain,241
2011-11-10,54,43,31,35,25,16,82,53,24,30.19,30.16,30.10,10,10,9,22,6,28,0.00,1,,271
2011-11-11,56,43,29,30,24,19,63,46,29,30.22,30.12,30.05,10,10,10,16,7,35,0.00,0,,195
2011-11-12,65,55,44,36,32,30,58,45,31,30.15,30.08,30.00,10,10,10,25,15,32,0.00,0,,194
2011-11-13,74,66,57,54,48,33,60,50,39,29.98,29.90,29.82,10,10,10,30,17,40,0.00,5,,195
2011-11-14,77,71,64,60,57,54,73,62,50,29.88,29.84,29.77,10,10,10,25,14,33,T,6,,207
2011-11-15,64,59,54,57,55,53,93,83,73,29.95,29.88,29.83,10,6,0,10,4,14,0.83,8,Fog-Rain,128
2011-11-16,58,50,42,56,50,26,93,71,49,30.16,29.89,29.76,10,6,0,16,6,26,2.31,7,Fog-Rain-Thunderstorm,360
2011-11-17,49,38,27,28,21,15,69,48,26,30.40,30.32,30.17,10,10,10,17,6,25,0.00,2,,330
2011-11-18,56,39,22,27,22,16,88,54,20,30.45,30.32,30.20,10,10,10,15,4,18,0.00,0,,169
2011-11-19,69,56,42,50,41,25,60,51,42,30.22,30.15,30.06,10,10,10,28,14,39,0.00,2,,188
2011-11-20,65,62,59,62,59,52,93,79,65,30.20,30.17,30.12,10,4,1,17,8,22,1.41,8,Rain-Thunderstorm,197
2011-11-21,66,64,61,63,61,57,93,90,87,30.22,30.13,30.05,10,7,2,15,5,22,0.76,8,Rain-Thunderstorm,172
2011-11-22,67,58,49,63,57,45,87,83,78,30.06,29.92,29.77,10,8,1,26,12,35,0.29,8,Rain-Thunderstorm,211
2011-11-23,51,49,47,45,43,42,86,79,71,30.35,30.23,30.01,10,9,6,17,6,28,0.00,8,,323
2011-11-24,61,49,37,42,40,33,86,69,51,30.43,30.36,30.30,10,9,5,8,2,10,0.00,3,,231
2011-11-25,66,49,32,42,34,30,96,65,34,30.31,30.24,30.14,10,8,1,18,6,23,0.00,0,,186
2011-11-26,74,64,54,54,47,37,62,52,41,30.16,30.05,29.88,10,10,10,28,14,35,T,3,,176
2011-11-27,67,55,42,57,48,39,93,78,63,30.01,29.93,29.84,10,6,2,22,7,30,1.50,8,Rain,279
2011-11-28,53,48,42,50,41,37,92,84,76,29.98,29.77,29.62,10,9,5,17,9,23,0.62,8,Rain,114
2011-11-29,42,39,36,37,34,32,85,81,76,30.02,29.82,29.70,10,10,6,18,10,24,0.01,8,Rain-Snow,228
2011-11-30,44,36,27,34,29,24,85,69,53,30.26,30.14,30.01,10,10,6,13,4,17,0.00,4,,283